Time;durP1;ratioP1;P1;durP2;ratioP2;P2;SDS_P1;SDS_P2;PMS_P1;PMS_P2;Temp;Humidity;BMP_temperature;BMP_pressure;BME280_temperature;BME280_humidity;BME280_pressure;Samples;Min_cycle;Max_cycle;Signal;HPM_P1;HPM_P2
2020/12/02 00:02:15;;;;;;;16.37;12.47;;;9.00;93.80;;;;;;5098461;28;20426;-81
2020/12/02 00:04:42;;;;;;;15.63;12.67;;;9.00;94.10;;;;;;5097884;28;20870;-81
2020/12/02 00:07:10;;;;;;;15.63;12.57;;;8.90;93.60;;;;;;5098110;28;20444;-80
2020/12/02 00:09:36;;;;;;;15.27;12.50;;;8.90;93.60;;;;;;5097924;28;20475;-80
2020/12/02 00:12:04;;;;;;;16.00;12.60;;;8.90;93.60;;;;;;5098440;28;20451;-80
2020/12/02 00:14:31;;;;;;;18.13;13.17;;;9.00;93.60;;;;;;5097866;28;20838;-80
2020/12/02 00:16:57;;;;;;;15.90;12.30;;;8.90;93.50;;;;;;5097994;28;20439;-81
2020/12/02 00:19:24;;;;;;;13.17;11.37;;;8.90;93.40;;;;;;5097620;28;20447;-81
2020/12/02 00:22:04;;;;;;;15.17;12.73;;;8.90;93.30;;;;;;5097424;28;20446;-80
2020/12/02 00:24:33;;;;;;;18.20;12.87;;;8.90;93.30;;;;;;5096921;28;20471;-81
2020/12/02 00:27:00;;;;;;;15.20;13.13;;;8.90;93.20;;;;;;5097839;28;20501;-80
2020/12/02 00:29:27;;;;;;;17.70;13.80;;;8.80;93.10;;;;;;5097354;28;20482;-80
2020/12/02 00:31:53;;;;;;;20.17;15.10;;;8.80;93.20;;;;;;5097501;28;20451;-80
2020/12/02 00:34:19;;;;;;;16.90;13.10;;;8.80;93.20;;;;;;5098155;28;20467;-81
2020/12/02 00:36:45;;;;;;;16.10;12.97;;;8.80;93.20;;;;;;5100627;28;20446;-81
2020/12/02 00:39:12;;;;;;;17.40;12.93;;;8.80;93.10;;;;;;5100512;28;20444;-80
2020/12/02 00:41:38;;;;;;;15.67;12.33;;;8.80;93.10;;;;;;5100750;28;20933;-81
2020/12/02 00:44:04;;;;;;;14.67;12.23;;;8.80;93.10;;;;;;5100133;28;20468;-81
2020/12/02 00:46:32;;;;;;;18.03;12.93;;;8.80;93.00;;;;;;5099729;28;20455;-80
2020/12/02 00:48:59;;;;;;;17.97;13.07;;;8.80;93.00;;;;;;5099876;28;20542;-80
2020/12/02 00:51:25;;;;;;;17.13;14.80;;;8.80;93.00;;;;;;5099786;28;20514;-81
2020/12/02 00:53:51;;;;;;;16.97;13.43;;;8.80;93.00;;;;;;5099930;28;20468;-81
2020/12/02 00:56:20;;;;;;;16.33;13.60;;;8.80;93.00;;;;;;5099895;28;20432;-81
2020/12/02 00:58:58;;;;;;;16.70;13.20;;;8.80;93.00;;;;;;5099183;28;20444;-81
2020/12/02 01:01:35;;;;;;;18.07;14.70;;;8.80;93.00;;;;;;5098371;28;20897;-81
2020/12/02 01:04:02;;;;;;;19.33;13.07;;;8.70;93.00;;;;;;5099178;28;20475;-81
2020/12/02 01:06:29;;;;;;;16.63;12.97;;;8.70;93.10;;;;;;5098092;28;20452;-81
2020/12/02 01:08:55;;;;;;;16.47;12.87;;;8.70;93.20;;;;;;5098442;28;20875;-80
2020/12/02 01:11:26;;;;;;;16.73;13.40;;;8.70;93.20;;;;;;5098260;28;20471;-80
2020/12/02 01:13:56;;;;;;;15.30;12.33;;;8.70;93.10;;;;;;5098236;28;20467;-80
2020/12/02 01:16:27;;;;;;;17.93;12.63;;;8.70;93.20;;;;;;5097920;28;20446;-80
2020/12/02 01:18:55;;;;;;;17.47;12.90;;;8.70;93.10;;;;;;5096424;28;20892;-81
2020/12/02 01:21:30;;;;;;;20.33;13.90;;;8.70;93.20;;;;;;5097017;28;20933;-81
2020/12/02 01:24:00;;;;;;;16.93;13.90;;;8.70;93.20;;;;;;5096975;28;20478;-80
2020/12/02 01:26:32;;;;;;;17.20;13.50;;;8.70;93.20;;;;;;5096936;28;20939;-81
2020/12/02 01:29:00;;;;;;;19.50;13.70;;;8.70;93.20;;;;;;5097059;28;20470;-80
2020/12/02 01:31:26;;;;;;;15.80;13.40;;;8.70;93.30;;;;;;5096511;28;20435;-80
2020/12/02 01:33:54;;;;;;;22.83;13.97;;;8.70;93.30;;;;;;5095751;28;20550;-80
2020/12/02 01:36:28;;;;;;;20.10;14.03;;;8.70;93.40;;;;;;5096898;28;20447;-80
2020/12/02 01:38:56;;;;;;;21.00;14.20;;;8.70;93.50;;;;;;5096519;28;20472;-80
2020/12/02 01:41:22;;;;;;;20.30;15.17;;;8.70;93.50;;;;;;5096193;28;20850;-80
2020/12/02 01:43:52;;;;;;;19.97;13.47;;;8.70;93.60;;;;;;5096377;28;20996;-81
2020/12/02 01:46:35;;;;;;;31.13;14.67;;;8.70;93.60;;;;;;5095903;28;20458;-80
2020/12/02 01:49:19;;;;;;;21.30;15.23;;;8.70;93.50;;;;;;5096894;28;20470;-80
2020/12/02 01:52:00;;;;;;;16.20;13.20;;;8.60;93.50;;;;;;5099884;28;20427;-80
2020/12/02 01:54:32;;;;;;;17.40;13.97;;;8.60;93.50;;;;;;5100186;28;20463;-80
2020/12/02 01:57:05;;;;;;;25.87;15.40;;;8.70;93.60;;;;;;5099521;28;20859;-81
2020/12/02 01:59:45;;;;;;;17.80;15.00;;;8.70;93.60;;;;;;5099868;28;20785;-80
2020/12/02 02:02:21;;;;;;;18.13;15.07;;;8.70;93.60;;;;;;5099577;28;20428;-80
2020/12/02 02:04:57;;;;;;;19.10;13.73;;;8.60;93.70;;;;;;5099820;28;20469;-80
2020/12/02 02:07:25;;;;;;;20.40;13.63;;;8.60;93.70;;;;;;5099964;28;20427;-80
2020/12/02 02:09:54;;;;;;;20.23;16.07;;;8.70;93.70;;;;;;5099608;28;20484;-80
2020/12/02 02:12:56;;;;;;;20.97;14.40;;;8.70;93.70;;;;;;5100113;28;20501;-80
2020/12/02 02:15:41;;;;;;;16.00;13.10;;;8.60;93.60;;;;;;5080826;28;20450;-80
2020/12/02 02:18:10;;;;;;;25.50;16.53;;;8.70;93.60;;;;;;5100443;28;20428;-80
2020/12/02 02:20:39;;;;;;;20.37;15.10;;;8.70;94.00;;;;;;5100101;28;20443;-81
2020/12/02 02:23:09;;;;;;;18.37;13.33;;;8.60;93.60;;;;;;5100043;28;20467;-80
2020/12/02 02:25:36;;;;;;;18.50;13.27;;;8.70;93.60;;;;;;5099734;28;20451;-80
2020/12/02 02:28:04;;;;;;;22.27;15.57;;;8.70;93.70;;;;;;5099523;28;20454;-81
2020/12/02 02:30:30;;;;;;;18.10;14.10;;;8.70;93.70;;;;;;5099694;28;20447;-80
2020/12/02 02:32:58;;;;;;;20.00;14.90;;;8.60;93.60;;;;;;5099611;28;20466;-80
2020/12/02 02:35:25;;;;;;;17.87;14.27;;;8.70;93.70;;;;;;5099893;28;20827;-80
2020/12/02 02:37:51;;;;;;;22.30;15.43;;;8.70;93.80;;;;;;5098916;28;20987;-80
2020/12/02 02:40:17;;;;;;;21.77;15.77;;;8.60;93.80;;;;;;5099166;28;20423;-80
2020/12/02 02:42:45;;;;;;;17.87;15.10;;;8.70;93.80;;;;;;5099323;28;20446;-81
2020/12/02 02:45:14;;;;;;;18.60;14.47;;;8.70;93.80;;;;;;5098756;28;20439;-80
2020/12/02 02:47:41;;;;;;;22.83;15.67;;;8.70;93.80;;;;;;5098955;28;20448;-80
2020/12/02 02:50:11;;;;;;;25.27;17.33;;;8.60;93.80;;;;;;5099093;28;21004;-80
2020/12/02 02:52:38;;;;;;;22.47;15.77;;;8.60;93.80;;;;;;5099131;28;20467;-80
2020/12/02 02:55:06;;;;;;;21.70;16.60;;;8.60;93.70;;;;;;5098548;28;20459;-80
2020/12/02 02:57:33;;;;;;;22.80;16.00;;;8.60;93.70;;;;;;5098991;28;20447;-80
2020/12/02 02:59:59;;;;;;;19.93;14.70;;;8.60;93.70;;;;;;5098169;28;20436;-80
2020/12/02 03:02:26;;;;;;;23.10;16.30;;;8.60;93.70;;;;;;5106358;28;20454;-81
2020/12/02 03:04:53;;;;;;;23.07;16.10;;;8.70;93.70;;;;;;5107558;28;20466;-81
2020/12/02 03:07:19;;;;;;;21.70;15.97;;;8.60;93.60;;;;;;5103375;28;20454;-81
2020/12/02 03:09:46;;;;;;;22.20;15.30;;;8.60;93.60;;;;;;5102295;28;20486;-80
2020/12/02 03:12:12;;;;;;;21.90;16.70;;;8.60;93.60;;;;;;5102769;28;20459;-81
2020/12/02 03:14:42;;;;;;;23.90;17.93;;;8.60;93.60;;;;;;5101864;28;20468;-80
2020/12/02 03:17:11;;;;;;;22.53;16.17;;;8.60;93.60;;;;;;5101619;28;20948;-80
2020/12/02 03:19:45;;;;;;;26.10;16.90;;;8.60;93.60;;;;;;5101171;28;20428;-80
2020/12/02 03:22:12;;;;;;;19.80;14.50;;;8.60;93.50;;;;;;5100639;28;20454;-81
2020/12/02 03:24:39;;;;;;;21.80;15.93;;;8.60;93.60;;;;;;5099998;28;20469;-80
2020/12/02 03:27:05;;;;;;;26.97;16.50;;;8.60;93.60;;;;;;5100192;28;20446;-80
2020/12/02 03:29:32;;;;;;;20.33;15.10;;;8.60;93.60;;;;;;5099869;28;20478;-80
2020/12/02 03:31:58;;;;;;;19.17;14.90;;;8.60;93.60;;;;;;5100106;28;20462;-80
2020/12/02 03:34:25;;;;;;;24.17;15.40;;;8.60;93.60;;;;;;5099389;28;20464;-80
2020/12/02 03:36:52;;;;;;;21.27;16.07;;;8.60;93.60;;;;;;5100028;28;20452;-80
2020/12/02 03:39:19;;;;;;;17.93;15.27;;;8.60;93.60;;;;;;5099098;28;20442;-80
2020/12/02 03:41:45;;;;;;;18.80;14.27;;;8.50;93.60;;;;;;5098938;28;20458;-80
2020/12/02 03:44:12;;;;;;;19.63;15.47;;;8.60;93.60;;;;;;5099016;28;20471;-80
2020/12/02 03:46:38;;;;;;;20.50;15.23;;;8.50;93.60;;;;;;5098979;28;20447;-80
2020/12/02 03:49:05;;;;;;;21.77;14.30;;;8.60;93.70;;;;;;5098925;28;20479;-80
2020/12/02 03:51:33;;;;;;;20.60;14.70;;;8.50;93.60;;;;;;5098685;28;20451;-81
2020/12/02 03:54:00;;;;;;;19.17;14.83;;;8.50;93.70;;;;;;5098724;28;20832;-80
2020/12/02 03:56:27;;;;;;;18.53;14.23;;;8.50;93.60;;;;;;5097865;28;20439;-80
2020/12/02 03:58:54;;;;;;;23.23;14.47;;;8.50;93.60;;;;;;5098527;28;20807;-80
2020/12/02 04:01:21;;;;;;;17.10;12.57;;;8.50;93.60;;;;;;5098333;28;20435;-80
2020/12/02 04:03:47;;;;;;;20.90;14.37;;;8.50;93.60;;;;;;5097949;28;20463;-80
2020/12/02 04:06:14;;;;;;;17.90;14.27;;;8.50;93.60;;;;;;5097796;28;20454;-80
2020/12/02 04:08:41;;;;;;;16.47;13.87;;;8.50;93.50;;;;;;5097640;28;20486;-80
2020/12/02 04:11:08;;;;;;;18.63;13.00;;;8.50;93.50;;;;;;5097369;28;20458;-80
2020/12/02 04:13:35;;;;;;;19.07;12.30;;;8.50;93.50;;;;;;5097120;28;20828;-80
2020/12/02 04:16:03;;;;;;;22.73;13.40;;;8.50;93.50;;;;;;5097374;28;20446;-80
2020/12/02 04:18:30;;;;;;;18.37;13.17;;;8.50;93.50;;;;;;5097546;28;20499;-80
2020/12/02 04:20:56;;;;;;;20.73;13.03;;;8.40;93.50;;;;;;5097153;28;20859;-80
2020/12/02 04:23:23;;;;;;;17.50;12.90;;;8.50;93.60;;;;;;5097990;28;20489;-80
2020/12/02 04:25:49;;;;;;;18.07;12.63;;;8.50;93.70;;;;;;5096690;28;20504;-80
2020/12/02 04:28:17;;;;;;;17.43;13.63;;;8.40;93.60;;;;;;5098021;28;20449;-80
2020/12/02 04:30:44;;;;;;;19.17;14.20;;;8.40;93.70;;;;;;5096969;28;20490;-80
2020/12/02 04:33:10;;;;;;;16.37;13.23;;;8.40;94.00;;;;;;5097238;28;20877;-80
2020/12/02 04:35:37;;;;;;;15.60;12.47;;;8.40;93.60;;;;;;5097262;28;20448;-80
2020/12/02 04:38:03;;;;;;;19.60;12.70;;;8.40;93.70;;;;;;5097069;28;20441;-80
2020/12/02 04:40:33;;;;;;;17.90;12.77;;;8.40;93.70;;;;;;5097148;28;20451;-80
2020/12/02 04:43:03;;;;;;;17.03;13.20;;;8.40;93.70;;;;;;5096687;28;20466;-80
2020/12/02 04:45:32;;;;;;;16.67;11.23;;;8.40;93.70;;;;;;5096095;28;20797;-80
2020/12/02 04:48:01;;;;;;;16.30;12.30;;;8.40;93.70;;;;;;5096587;28;20455;-80
2020/12/02 04:50:29;;;;;;;18.60;12.90;;;8.40;93.70;;;;;;5096254;28;20489;-80
2020/12/02 04:53:06;;;;;;;16.40;12.90;;;8.40;93.70;;;;;;5096113;28;20953;-79
2020/12/02 04:55:32;;;;;;;15.13;12.13;;;8.40;93.70;;;;;;5096370;28;20420;-79
2020/12/02 04:57:58;;;;;;;18.73;12.47;;;8.40;93.70;;;;;;5096093;28;20852;-79
2020/12/02 05:00:28;;;;;;;19.70;11.63;;;8.40;93.70;;;;;;5096191;28;20448;-79
2020/12/02 05:03:06;;;;;;;16.20;11.60;;;8.40;93.60;;;;;;5095694;28;20448;-79
2020/12/02 05:05:32;;;;;;;21.97;12.43;;;8.40;93.60;;;;;;5096601;28;20505;-79
2020/12/02 05:08:15;;;;;;;20.40;12.30;;;8.40;93.60;;;;;;5096214;28;20446;-79
2020/12/02 05:10:41;;;;;;;17.17;12.17;;;8.40;93.70;;;;;;5096287;28;20474;-80
2020/12/02 05:13:10;;;;;;;17.57;12.87;;;8.30;93.60;;;;;;5096380;28;20493;-79
2020/12/02 05:15:36;;;;;;;18.73;13.63;;;8.30;93.70;;;;;;5096458;28;20444;-79
2020/12/02 05:18:10;;;;;;;21.57;12.73;;;8.30;93.70;;;;;;5095921;28;20901;-79
2020/12/02 05:20:37;;;;;;;17.57;13.17;;;8.30;93.70;;;;;;5096261;28;20446;-79
2020/12/02 05:23:10;;;;;;;13.57;11.63;;;8.30;93.80;;;;;;5097012;28;20459;-79
2020/12/02 05:25:37;;;;;;;17.03;13.30;;;8.30;93.70;;;;;;5099548;28;20451;-79
2020/12/02 05:28:16;;;;;;;15.43;12.50;;;8.30;93.70;;;;;;5099797;28;20443;-79
2020/12/02 05:30:42;;;;;;;16.30;12.43;;;8.40;93.80;;;;;;5100249;28;20468;-79
2020/12/02 05:33:20;;;;;;;19.70;13.10;;;8.30;93.70;;;;;;5099891;28;20463;-79
2020/12/02 05:35:49;;;;;;;17.07;12.13;;;8.30;93.80;;;;;;5099117;28;20424;-79
2020/12/02 05:38:31;;;;;;;20.17;13.60;;;8.40;93.80;;;;;;5099805;28;20442;-79
2020/12/02 05:40:58;;;;;;;19.77;12.13;;;8.30;93.80;;;;;;5100204;28;20429;-80
2020/12/02 05:43:31;;;;;;;16.67;11.77;;;8.40;93.90;;;;;;5098937;28;20964;-79
2020/12/02 05:45:59;;;;;;;22.20;13.07;;;8.40;93.90;;;;;;5099155;28;20420;-79
2020/12/02 05:48:31;;;;;;;18.30;13.00;;;8.40;94.00;;;;;;5099864;28;20450;-79
2020/12/02 05:50:57;;;;;;;20.43;13.57;;;8.40;94.00;;;;;;5099343;28;20421;-79
2020/12/02 05:53:28;;;;;;;20.70;13.17;;;8.40;94.00;;;;;;5099454;28;20824;-79
2020/12/02 05:55:54;;;;;;;16.77;11.40;;;8.40;94.00;;;;;;5098641;28;20424;-79
2020/12/02 05:58:25;;;;;;;14.50;11.30;;;8.40;94.00;;;;;;5099618;28;20448;-79
2020/12/02 06:00:52;;;;;;;18.57;13.07;;;8.40;94.10;;;;;;5099694;28;20427;-79
2020/12/02 06:03:20;;;;;;;20.20;12.80;;;8.40;94.10;;;;;;5100599;28;20470;-79
2020/12/02 06:05:47;;;;;;;17.60;12.90;;;8.40;94.10;;;;;;5107877;28;20443;-81
2020/12/02 06:08:33;;;;;;;17.70;12.97;;;8.40;94.20;;;;;;5106712;28;20448;-80
2020/12/02 06:11:22;;;;;;;18.47;13.13;;;8.40;94.20;;;;;;5103910;28;20432;-80
2020/12/02 06:13:51;;;;;;;17.30;13.10;;;8.40;94.10;;;;;;5103525;28;20971;-80
2020/12/02 06:16:29;;;;;;;18.30;12.47;;;8.40;94.10;;;;;;5103206;28;20918;-80
2020/12/02 06:19:03;;;;;;;15.40;12.67;;;8.40;94.10;;;;;;5101978;28;20409;-80
2020/12/02 06:21:39;;;;;;;15.97;12.93;;;8.40;94.00;;;;;;5102440;28;20428;-81
2020/12/02 06:24:07;;;;;;;18.93;12.63;;;8.40;94.00;;;;;;5102006;28;20485;-80
2020/12/02 06:26:36;;;;;;;17.30;12.50;;;8.40;94.00;;;;;;5101229;28;20431;-80
2020/12/02 06:29:03;;;;;;;18.60;12.60;;;8.40;94.00;;;;;;5100450;28;20494;-79
2020/12/02 06:31:30;;;;;;;18.70;13.10;;;8.40;94.10;;;;;;5100417;28;20856;-80
2020/12/02 06:33:59;;;;;;;19.33;13.13;;;8.40;94.10;;;;;;5100419;28;20476;-81
2020/12/02 06:36:28;;;;;;;16.50;13.43;;;8.40;94.10;;;;;;5099221;28;20469;-80
2020/12/02 06:39:13;;;;;;;18.20;13.20;;;8.40;94.20;;;;;;5100975;28;20447;-81
2020/12/02 06:41:40;;;;;;;18.70;11.80;;;8.40;94.10;;;;;;5099149;28;20448;-80
2020/12/02 06:44:39;;;;;;;18.60;13.10;;;8.40;94.00;;;;;;5099252;28;20467;-80
2020/12/02 06:47:25;;;;;;;22.20;13.27;;;8.40;94.00;;;;;;5093123;28;20463;-80
2020/12/02 06:49:56;;;;;;;18.77;12.80;;;8.40;94.30;;;;;;5097818;28;20494;-80
2020/12/02 06:52:29;;;;;;;17.80;12.43;;;8.40;94.00;;;;;;5097852;28;20424;-80
2020/12/02 06:55:11;;;;;;;17.10;13.17;;;8.40;94.00;;;;;;5096801;28;20468;-80
2020/12/02 06:57:37;;;;;;;21.50;13.20;;;8.40;94.00;;;;;;5096866;28;20426;-80
2020/12/02 07:00:08;;;;;;;18.93;12.80;;;8.40;94.00;;;;;;5096966;28;20436;-80
2020/12/02 07:02:40;;;;;;;19.47;12.73;;;8.40;94.00;;;;;;5099383;28;20430;-81
2020/12/02 07:05:12;;;;;;;18.90;13.33;;;8.40;94.10;;;;;;5098845;28;20434;-80
2020/12/02 07:07:38;;;;;;;17.90;14.00;;;8.40;94.20;;;;;;5098575;28;20434;-80
2020/12/02 07:10:16;;;;;;;19.13;12.23;;;8.40;94.20;;;;;;5097202;28;21028;-80
2020/12/02 07:12:43;;;;;;;22.60;13.17;;;8.40;94.30;;;;;;5097062;28;20420;-80
2020/12/02 07:15:13;;;;;;;17.17;12.50;;;8.40;94.20;;;;;;5096832;28;20512;-80
2020/12/02 07:17:40;;;;;;;16.73;12.60;;;8.40;93.90;;;;;;5096991;28;20435;-80
2020/12/02 07:20:08;;;;;;;19.90;12.97;;;8.40;93.80;;;;;;5096456;28;20452;-80
2020/12/02 07:22:37;;;;;;;16.60;12.70;;;8.40;93.80;;;;;;5096372;28;20428;-80
2020/12/02 07:25:07;;;;;;;22.73;13.07;;;8.30;93.80;;;;;;5096371;28;20481;-80
2020/12/02 07:27:41;;;;;;;19.47;14.43;;;8.30;93.90;;;;;;5097232;28;20426;-80
2020/12/02 07:30:08;;;;;;;19.23;15.00;;;8.40;94.00;;;;;;5098973;28;20467;-79
2020/12/02 07:32:34;;;;;;;18.90;14.10;;;8.40;94.10;;;;;;5097901;28;20450;-79
2020/12/02 07:35:02;;;;;;;20.30;13.23;;;8.40;94.10;;;;;;5097650;28;20476;-79
2020/12/02 07:37:28;;;;;;;15.97;11.80;;;8.40;94.10;;;;;;5097794;28;20945;-80
2020/12/02 07:39:58;;;;;;;20.33;12.93;;;8.40;94.20;;;;;;5098249;28;20424;-80
2020/12/02 07:42:29;;;;;;;17.00;13.33;;;8.40;94.10;;;;;;5097589;28;20534;-79
2020/12/02 07:45:04;;;;;;;21.33;14.80;;;8.40;94.10;;;;;;5095389;28;20561;-79
2020/12/02 07:47:31;;;;;;;15.43;12.00;;;8.40;94.10;;;;;;5094435;28;20439;-79
2020/12/02 07:50:04;;;;;;;18.03;11.60;;;8.40;94.10;;;;;;5094939;28;20486;-79
2020/12/02 07:52:35;;;;;;;15.03;11.70;;;8.40;94.20;;;;;;5095471;28;20420;-79
2020/12/02 07:55:01;;;;;;;17.50;12.67;;;8.50;94.20;;;;;;5095976;28;20460;-80
2020/12/02 07:57:29;;;;;;;20.50;13.70;;;8.50;94.30;;;;;;5095981;28;20431;-80
2020/12/02 08:00:14;;;;;;;15.37;11.80;;;8.50;94.30;;;;;;5096351;28;20450;-79
2020/12/02 08:02:43;;;;;;;19.70;12.77;;;8.50;94.30;;;;;;5094902;28;20764;-79
2020/12/02 08:05:35;;;;;;;16.07;11.77;;;8.50;94.30;;;;;;5094896;28;20428;-81
2020/12/02 08:08:01;;;;;;;20.10;12.90;;;8.50;94.20;;;;;;5098800;28;20447;-81
2020/12/02 08:10:33;;;;;;;16.07;11.30;;;8.50;94.20;;;;;;5096693;28;20841;-80
2020/12/02 08:13:02;;;;;;;21.57;13.07;;;8.50;94.10;;;;;;5096195;28;20460;-79
2020/12/02 08:15:29;;;;;;;14.67;11.43;;;8.50;94.10;;;;;;5096949;28;20432;-80
2020/12/02 08:18:14;;;;;;;15.97;12.23;;;8.50;94.00;;;;;;5095760;28;20504;-80
2020/12/02 08:20:42;;;;;;;19.07;12.40;;;8.60;94.20;;;;;;5094569;28;20916;-80
2020/12/02 08:23:12;;;;;;;16.83;12.90;;;8.60;93.90;;;;;;5094996;28;20474;-80
2020/12/02 08:25:51;;;;;;;15.90;10.90;;;8.60;93.70;;;;;;5095913;28;20839;-79
2020/12/02 08:28:21;;;;;;;16.50;11.10;;;8.50;93.50;;;;;;5096611;28;20428;-80
2020/12/02 08:31:00;;;;;;;17.23;11.40;;;8.50;93.40;;;;;;5096577;28;20478;-80
2020/12/02 08:33:26;;;;;;;22.77;12.53;;;8.50;93.20;;;;;;5097286;28;20507;-80
2020/12/02 08:35:53;;;;;;;16.90;11.23;;;8.50;93.00;;;;;;5096177;28;20447;-80
2020/12/02 08:38:26;;;;;;;17.03;11.90;;;8.50;93.00;;;;;;5096835;28;20430;-81
2020/12/02 08:40:55;;;;;;;15.30;11.53;;;8.50;93.00;;;;;;5095854;28;20421;-81
2020/12/02 08:43:40;;;;;;;17.37;11.93;;;8.50;92.80;;;;;;5094679;28;20843;-80
2020/12/02 08:46:22;;;;;;;18.03;12.33;;;8.50;92.30;;;;;;5094868;28;20458;-78
2020/12/02 08:48:51;;;;;;;13.00;11.27;;;8.40;92.20;;;;;;5094697;28;20428;-78
2020/12/02 08:51:20;;;;;;;17.50;12.77;;;8.40;92.30;;;;;;5095743;28;21040;-80
2020/12/02 08:53:47;;;;;;;18.77;12.43;;;8.50;92.20;;;;;;5094591;28;20940;-80
2020/12/02 08:56:25;;;;;;;16.73;12.23;;;8.40;92.00;;;;;;5096173;28;20525;-80
2020/12/02 08:58:51;;;;;;;13.80;11.50;;;8.40;92.00;;;;;;5098747;28;20904;-80
2020/12/02 09:01:17;;;;;;;16.87;13.00;;;8.40;92.10;;;;;;5100610;28;20431;-81
2020/12/02 09:03:44;;;;;;;16.10;11.87;;;8.40;92.20;;;;;;5101805;28;20470;-79
2020/12/02 09:06:14;;;;;;;20.87;13.60;;;8.40;92.20;;;;;;5101166;28;20447;-81
2020/12/02 09:08:40;;;;;;;18.97;12.53;;;8.30;92.20;;;;;;5101155;28;20419;-81
2020/12/02 09:11:06;;;;;;;18.57;13.67;;;8.40;92.30;;;;;;5100001;28;20478;-80
2020/12/02 09:13:33;;;;;;;16.67;12.70;;;8.40;92.40;;;;;;5099675;28;20466;-82
2020/12/02 09:16:00;;;;;;;18.53;14.47;;;8.40;92.40;;;;;;5099834;28;20440;-81
2020/12/02 09:18:26;;;;;;;16.40;12.90;;;8.40;92.30;;;;;;5099261;28;20443;-79
2020/12/02 09:20:52;;;;;;;22.33;13.37;;;8.40;92.10;;;;;;5099904;28;20420;-80
2020/12/02 09:23:18;;;;;;;20.20;14.07;;;8.40;92.10;;;;;;5100142;28;20460;-78
2020/12/02 09:25:45;;;;;;;16.60;12.33;;;8.50;92.10;;;;;;5101047;28;20967;-79
2020/12/02 09:28:11;;;;;;;17.20;12.23;;;8.40;91.90;;;;;;5102347;28;20431;-81
2020/12/02 09:30:38;;;;;;;15.43;12.93;;;8.50;91.90;;;;;;5100338;28;20463;-78
2020/12/02 09:33:04;;;;;;;17.33;13.40;;;8.40;91.80;;;;;;5099871;28;20566;-80
2020/12/02 09:35:30;;;;;;;20.37;13.87;;;8.50;91.70;;;;;;5100674;28;20428;-79
2020/12/02 09:37:56;;;;;;;16.70;12.70;;;8.50;91.80;;;;;;5100120;28;20420;-81
2020/12/02 09:40:23;;;;;;;17.00;11.63;;;8.50;91.80;;;;;;5099885;28;20431;-80
2020/12/02 09:43:04;;;;;;;18.30;13.60;;;8.50;91.90;;;;;;5100502;28;20436;-80
2020/12/02 09:45:39;;;;;;;15.27;11.80;;;8.50;92.00;;;;;;5099528;28;20428;-80
2020/12/02 09:48:13;;;;;;;17.40;12.87;;;8.50;92.00;;;;;;5099153;28;20466;-81
2020/12/02 09:50:40;;;;;;;21.53;13.27;;;8.50;91.90;;;;;;5099278;28;20470;-81
2020/12/02 09:53:16;;;;;;;15.57;13.03;;;8.50;91.80;;;;;;5099765;28;20462;-81
2020/12/02 09:55:43;;;;;;;19.47;13.77;;;8.50;91.80;;;;;;5099776;28;20433;-81
2020/12/02 09:58:11;;;;;;;19.47;14.07;;;8.50;91.70;;;;;;5100168;28;20438;-81
2020/12/02 10:00:38;;;;;;;21.97;16.30;;;8.50;91.70;;;;;;5100607;28;20898;-81
2020/12/02 10:03:32;;;;;;;19.57;14.07;;;8.50;91.80;;;;;;5100742;28;20555;-80
2020/12/02 10:06:15;;;;;;;21.10;16.57;;;8.50;91.80;;;;;;5101153;28;20472;-82
2020/12/02 10:09:00;;;;;;;18.60;14.87;;;8.40;91.70;;;;;;5100420;28;20432;-81
2020/12/02 10:11:40;;;;;;;22.70;15.20;;;8.40;91.90;;;;;;5099232;28;20848;-80
2020/12/02 10:14:43;;;;;;;19.20;15.43;;;8.30;91.90;;;;;;5099783;28;20988;-80
2020/12/02 10:17:20;;;;;;;19.50;15.90;;;8.20;92.00;;;;;;5100044;28;20428;-81
2020/12/02 10:20:03;;;;;;;23.20;16.80;;;8.20;92.20;;;;;;5100673;28;20431;-80
2020/12/02 10:22:50;;;;;;;22.77;16.87;;;8.30;92.30;;;;;;5100835;28;20424;-79
2020/12/02 10:25:56;;;;;;;21.00;16.60;;;8.30;92.20;;;;;;5100746;28;20462;-80
2020/12/02 10:28:28;;;;;;;18.63;15.00;;;8.30;92.30;;;;;;5100690;28;20432;-81
2020/12/02 10:31:07;;;;;;;19.13;15.67;;;8.30;92.30;;;;;;5100539;28;20479;-80
2020/12/02 10:33:47;;;;;;;15.40;13.67;;;8.30;92.10;;;;;;5100540;28;20456;-80
2020/12/02 10:36:16;;;;;;;18.83;12.43;;;8.30;92.00;;;;;;5100854;28;20440;-81
2020/12/02 10:38:50;;;;;;;15.47;11.83;;;8.30;91.70;;;;;;5100637;28;20442;-81
2020/12/02 10:41:29;;;;;;;12.80;11.33;;;8.30;91.60;;;;;;5101515;28;20506;-81
2020/12/02 10:44:09;;;;;;;13.37;11.20;;;8.30;91.70;;;;;;5099906;28;20467;-81
2020/12/02 10:46:52;;;;;;;13.63;12.10;;;8.30;91.80;;;;;;5100103;28;20419;-82
2020/12/02 10:49:26;;;;;;;13.10;11.23;;;8.30;91.70;;;;;;5099650;28;20448;-80
2020/12/02 10:51:56;;;;;;;13.33;11.23;;;8.30;91.60;;;;;;5099408;28;20451;-81
2020/12/02 10:54:24;;;;;;;12.30;10.33;;;8.30;91.40;;;;;;5099096;28;21027;-82
2020/12/02 10:56:55;;;;;;;10.57;9.43;;;8.30;91.40;;;;;;5099172;28;20992;-80
2020/12/02 10:59:23;;;;;;;11.40;9.80;;;8.30;91.20;;;;;;5100073;28;20423;-81
2020/12/02 11:01:50;;;;;;;11.83;9.50;;;8.30;91.20;;;;;;5099741;28;20489;-79
2020/12/02 11:04:18;;;;;;;11.80;10.57;;;8.30;91.20;;;;;;5098002;28;20968;-80
2020/12/02 11:06:53;;;;;;;10.97;9.87;;;8.30;91.20;;;;;;5098465;28;20439;-82
2020/12/02 11:09:36;;;;;;;11.73;10.40;;;8.30;91.10;;;;;;5098815;28;20430;-82
2020/12/02 11:12:20;;;;;;;11.40;10.20;;;8.30;91.00;;;;;;5098158;28;20446;-83
2020/12/02 11:15:00;;;;;;;10.30;9.30;;;8.30;91.00;;;;;;5098985;28;20466;-82
2020/12/02 11:17:35;;;;;;;10.47;9.30;;;8.30;91.10;;;;;;5098536;28;20432;-80
2020/12/02 11:20:07;;;;;;;9.30;8.40;;;8.30;91.10;;;;;;5098910;28;20870;-82
2020/12/02 11:22:46;;;;;;;12.20;8.50;;;8.30;91.00;;;;;;5098677;28;20424;-78
2020/12/02 11:25:16;;;;;;;10.47;9.37;;;8.30;91.10;;;;;;5098594;28;20481;-80
2020/12/02 11:27:43;;;;;;;10.50;9.10;;;8.30;91.20;;;;;;5098300;28;20420;-82
2020/12/02 11:30:16;;;;;;;9.57;8.57;;;8.30;91.30;;;;;;5097892;28;20462;-82
2020/12/02 11:33:16;;;;;;;10.83;9.23;;;8.30;91.20;;;;;;5097529;28;20412;-81
2020/12/02 11:36:19;;;;;;;10.27;9.27;;;8.30;90.90;;;;;;5097407;28;20408;-81
2020/12/02 11:38:54;;;;;;;10.40;9.37;;;8.30;90.50;;;;;;5078341;28;20437;-82
2020/12/02 11:41:29;;;;;;;12.90;9.23;;;8.30;90.60;;;;;;5098086;28;20413;-82
2020/12/02 11:43:58;;;;;;;10.30;9.30;;;8.30;90.60;;;;;;5100562;28;20469;-82
2020/12/02 11:46:27;;;;;;;11.10;9.97;;;8.40;90.70;;;;;;5099396;28;20756;-81
2020/12/02 11:49:00;;;;;;;10.33;9.33;;;8.40;90.60;;;;;;5097993;28;20438;-79
2020/12/02 11:51:32;;;;;;;10.87;9.07;;;8.40;90.70;;;;;;5098044;28;20475;-80
2020/12/02 11:54:00;;;;;;;12.07;10.50;;;8.40;90.50;;;;;;5101045;28;20551;-81
2020/12/02 11:56:30;;;;;;;12.00;10.23;;;8.40;90.30;;;;;;5101016;28;20432;-80
2020/12/02 11:58:59;;;;;;;12.27;10.80;;;8.40;90.20;;;;;;5096485;28;20428;-79
2020/12/02 12:01:40;;;;;;;10.60;9.50;;;8.40;90.20;;;;;;5097336;28;20445;-79
2020/12/02 12:04:19;;;;;;;14.37;11.70;;;8.30;90.30;;;;;;5100974;28;20474;-80
2020/12/02 12:06:50;;;;;;;14.97;12.70;;;8.30;90.30;;;;;;5102173;28;20519;-80
2020/12/02 12:09:22;;;;;;;13.20;10.73;;;8.30;90.10;;;;;;5101555;28;20447;-80
2020/12/02 12:11:49;;;;;;;15.23;12.77;;;8.30;90.30;;;;;;5101602;28;20436;-81
2020/12/02 12:14:26;;;;;;;17.17;13.47;;;8.30;90.40;;;;;;5101185;28;20455;-80
2020/12/02 12:17:01;;;;;;;19.43;15.47;;;8.30;90.40;;;;;;5101116;28;20788;-80
2020/12/02 12:19:40;;;;;;;17.30;13.60;;;8.30;90.50;;;;;;5102564;28;20514;-81
2020/12/02 12:22:18;;;;;;;20.13;16.07;;;8.30;90.50;;;;;;5102581;28;20431;-80
2020/12/02 12:24:49;;;;;;;20.43;15.93;;;8.30;90.70;;;;;;5101829;28;20475;-81
2020/12/02 12:27:19;;;;;;;20.40;16.20;;;8.30;90.60;;;;;;5102143;28;20423;-80
2020/12/02 12:29:46;;;;;;;19.37;16.50;;;8.30;90.80;;;;;;5102600;28;20500;-81
2020/12/02 12:32:17;;;;;;;17.27;14.50;;;8.30;90.50;;;;;;5102970;28;21085;-81
2020/12/02 12:34:50;;;;;;;17.40;15.10;;;8.30;90.50;;;;;;5105202;28;20808;-82
2020/12/02 12:37:20;;;;;;;17.30;14.87;;;8.30;90.40;;;;;;5108927;28;20431;-80
2020/12/02 12:39:48;;;;;;;18.50;15.20;;;8.20;90.30;;;;;;5108615;28;20437;-81
2020/12/02 12:42:21;;;;;;;21.97;16.83;;;8.30;90.40;;;;;;5108096;28;20821;-81
2020/12/02 12:44:48;;;;;;;18.63;15.90;;;8.30;90.50;;;;;;5104744;28;20460;-80
2020/12/02 12:47:22;;;;;;;16.63;14.90;;;8.30;90.60;;;;;;5103682;28;20425;-81
2020/12/02 12:49:49;;;;;;;16.20;13.10;;;8.30;90.60;;;;;;5103799;28;20469;-80
2020/12/02 12:52:19;;;;;;;15.50;13.50;;;8.30;90.60;;;;;;5101360;28;20952;-78
2020/12/02 12:54:47;;;;;;;17.73;13.60;;;8.40;90.70;;;;;;5101841;28;20468;-80
2020/12/02 12:57:17;;;;;;;16.83;13.17;;;8.40;90.80;;;;;;5101211;28;20420;-79
2020/12/02 12:59:43;;;;;;;15.30;13.03;;;8.40;90.60;;;;;;5102762;28;20424;-81